X  Sluiten METAR luchtvaart weer gegevens      EHAM Amsterdam Airport Schiphol
Temperatuur
43°F Temperatuur
37°F Dauwpunt
81% Vochtigheid



Wind
3 MPH
5 KM/U
1 M/S
3 KTS



10°
N
Huidig weer

Helder Helder
Luchtdruk 1026.92 (hPa) - 30.32 (inHg)
Zicht 6.2 (mijl) - 10 (km)
Vliegveld
Vliegveld code EHAM

Locatie : Amsterdam Airport Schiphol
Afstand: 40 (mi)

Metar:
EHAM 011825Z 01003KT 340V040 CAVOK 06/03 Q1027 NOSIG

Tijd: 01-12-2022 19:25 CET